sensor_id;sensor_type;location;lat;lon;timestamp;pressure;altitude;pressure_sealevel;temperature;humidity
7760;BME280;3924;48.830;9.262;2023-04-20T00:00:23;98604.66;;;5.79;68.66
7760;BME280;3924;48.830;9.262;2023-04-20T00:02:50;98609.19;;;5.73;68.78
7760;BME280;3924;48.830;9.262;2023-04-20T00:05:17;98604.06;;;5.71;69.00
7760;BME280;3924;48.830;9.262;2023-04-20T00:07:43;98601.38;;;5.71;68.80
7760;BME280;3924;48.830;9.262;2023-04-20T00:10:10;98599.44;;;5.67;68.88
7760;BME280;3924;48.830;9.262;2023-04-20T00:12:37;98599.69;;;5.60;68.89
7760;BME280;3924;48.830;9.262;2023-04-20T00:15:03;98591.59;;;5.60;69.13
7760;BME280;3924;48.830;9.262;2023-04-20T00:17:30;98587.84;;;5.61;69.07
7760;BME280;3924;48.830;9.262;2023-04-20T00:19:57;98590.53;;;5.61;69.25
7760;BME280;3924;48.830;9.262;2023-04-20T00:22:23;98589.19;;;5.59;69.30
7760;BME280;3924;48.830;9.262;2023-04-20T00:24:51;98587.78;;;5.51;69.44
7760;BME280;3924;48.830;9.262;2023-04-20T00:27:17;98582.66;;;5.44;69.39
7760;BME280;3924;48.830;9.262;2023-04-20T00:29:44;98573.72;;;5.39;69.32
7760;BME280;3924;48.830;9.262;2023-04-20T00:32:10;98577.44;;;5.33;69.37
7760;BME280;3924;48.830;9.262;2023-04-20T00:34:37;98565.63;;;5.34;69.67
7760;BME280;3924;48.830;9.262;2023-04-20T00:37:03;98568.88;;;5.36;69.55
7760;BME280;3924;48.830;9.262;2023-04-20T00:39:30;98562.97;;;5.39;69.54
7760;BME280;3924;48.830;9.262;2023-04-20T00:42:04;98559.44;;;5.33;69.44
7760;BME280;3924;48.830;9.262;2023-04-20T00:44:31;98561.81;;;5.25;69.43
7760;BME280;3924;48.830;9.262;2023-04-20T00:46:58;98549.66;;;5.17;69.45
7760;BME280;3924;48.830;9.262;2023-04-20T00:49:27;98547.94;;;5.06;69.64
7760;BME280;3924;48.830;9.262;2023-04-20T00:51:58;98546.63;;;5.08;69.84
7760;BME280;3924;48.830;9.262;2023-04-20T00:54:29;98536.97;;;5.12;69.77
7760;BME280;3924;48.830;9.262;2023-04-20T00:56:58;98542.34;;;5.12;69.93
7760;BME280;3924;48.830;9.262;2023-04-20T00:59:25;98541.75;;;5.05;69.86
7760;BME280;3924;48.830;9.262;2023-04-20T01:01:51;98537.41;;;4.99;69.90
7760;BME280;3924;48.830;9.262;2023-04-20T01:04:18;98534.72;;;4.99;70.15
7760;BME280;3924;48.830;9.262;2023-04-20T01:06:44;98538.53;;;5.03;70.10
7760;BME280;3924;48.830;9.262;2023-04-20T01:09:11;98528.88;;;5.07;70.04
7760;BME280;3924;48.830;9.262;2023-04-20T01:11:38;98532.13;;;5.09;70.47
7760;BME280;3924;48.830;9.262;2023-04-20T01:14:04;98512.75;;;5.07;70.37
7760;BME280;3924;48.830;9.262;2023-04-20T01:16:31;98514.91;;;5.05;70.48
7760;BME280;3924;48.830;9.262;2023-04-20T01:19:00;98512.47;;;5.04;70.72
7760;BME280;3924;48.830;9.262;2023-04-20T01:21:26;98502.53;;;5.04;70.79
7760;BME280;3924;48.830;9.262;2023-04-20T01:23:53;98500.91;;;5.03;70.79
7760;BME280;3924;48.830;9.262;2023-04-20T01:26:22;98499.31;;;5.02;70.64
7760;BME280;3924;48.830;9.262;2023-04-20T01:28:48;98502.00;;;5.02;70.67
7760;BME280;3924;48.830;9.262;2023-04-20T01:31:15;98493.13;;;5.02;70.63
7760;BME280;3924;48.830;9.262;2023-04-20T01:33:41;98493.63;;;4.99;70.90
7760;BME280;3924;48.830;9.262;2023-04-20T01:36:08;98480.97;;;4.94;71.15
7760;BME280;3924;48.830;9.262;2023-04-20T01:38:35;98477.44;;;4.88;71.17
7760;BME280;3924;48.830;9.262;2023-04-20T01:41:04;98478.44;;;4.77;71.14
7760;BME280;3924;48.830;9.262;2023-04-20T01:43:33;98475.94;;;4.71;71.12
7760;BME280;3924;48.830;9.262;2023-04-20T01:46:00;98474.88;;;4.72;71.45
7760;BME280;3924;48.830;9.262;2023-04-20T01:48:27;98472.78;;;4.74;71.23
7760;BME280;3924;48.830;9.262;2023-04-20T01:50:53;98464.72;;;4.74;71.31
7760;BME280;3924;48.830;9.262;2023-04-20T01:53:20;98461.47;;;4.72;71.36
7760;BME280;3924;48.830;9.262;2023-04-20T01:55:49;98459.84;;;4.71;71.42
7760;BME280;3924;48.830;9.262;2023-04-20T01:58:16;98459.34;;;4.74;71.76
7760;BME280;3924;48.830;9.262;2023-04-20T02:00:42;98457.22;;;4.76;71.39
7760;BME280;3924;48.830;9.262;2023-04-20T02:03:09;98456.09;;;4.72;71.61
7760;BME280;3924;48.830;9.262;2023-04-20T02:05:36;98441.56;;;4.68;71.83
7760;BME280;3924;48.830;9.262;2023-04-20T02:08:03;98457.09;;;4.65;71.73
7760;BME280;3924;48.830;9.262;2023-04-20T02:10:29;98448.50;;;4.63;71.98
7760;BME280;3924;48.830;9.262;2023-04-20T02:12:56;98446.91;;;4.62;71.83
7760;BME280;3924;48.830;9.262;2023-04-20T02:15:22;98444.72;;;4.59;72.11
7760;BME280;3924;48.830;9.262;2023-04-20T02:17:49;98446.84;;;4.57;72.09
7760;BME280;3924;48.830;9.262;2023-04-20T02:20:18;98444.44;;;4.56;72.07
7760;BME280;3924;48.830;9.262;2023-04-20T02:22:47;98444.91;;;4.53;72.22
7760;BME280;3924;48.830;9.262;2023-04-20T02:25:14;98446.22;;;4.45;72.42
7760;BME280;3924;48.830;9.262;2023-04-20T02:27:40;98436.28;;;4.46;72.60
7760;BME280;3924;48.830;9.262;2023-04-20T02:30:07;98436.28;;;4.46;72.48
7760;BME280;3924;48.830;9.262;2023-04-20T02:32:34;98430.63;;;4.42;72.72
7760;BME280;3924;48.830;9.262;2023-04-20T02:35:01;98431.38;;;4.37;72.83
7760;BME280;3924;48.830;9.262;2023-04-20T02:37:29;98433.78;;;4.34;72.80
7760;BME280;3924;48.830;9.262;2023-04-20T02:39:56;98428.41;;;4.34;72.78
7760;BME280;3924;48.830;9.262;2023-04-20T02:42:23;98430.53;;;4.32;72.89
7760;BME280;3924;48.830;9.262;2023-04-20T02:44:49;98426.00;;;4.32;72.84
7760;BME280;3924;48.830;9.262;2023-04-20T02:47:17;98420.63;;;4.32;72.80
7760;BME280;3924;48.830;9.262;2023-04-20T02:49:44;98423.25;;;4.27;72.92
7760;BME280;3924;48.830;9.262;2023-04-20T02:52:11;98413.53;;;4.21;73.06
7760;BME280;3924;48.830;9.262;2023-04-20T02:54:37;98423.47;;;4.21;73.46
7760;BME280;3924;48.830;9.262;2023-04-20T02:57:04;98426.91;;;4.16;73.40
7760;BME280;3924;48.830;9.262;2023-04-20T02:59:30;98416.38;;;4.09;73.47
7760;BME280;3924;48.830;9.262;2023-04-20T03:01:57;98417.34;;;3.98;73.33
7760;BME280;3924;48.830;9.262;2023-04-20T03:04:24;98407.06;;;3.90;73.64
7760;BME280;3924;48.830;9.262;2023-04-20T03:06:52;98401.66;;;3.85;73.40
7760;BME280;3924;48.830;9.262;2023-04-20T03:09:19;98403.75;;;3.78;73.50
7760;BME280;3924;48.830;9.262;2023-04-20T03:11:45;98404.56;;;3.83;73.76
7760;BME280;3924;48.830;9.262;2023-04-20T03:14:12;98399.59;;;3.92;74.17
7760;BME280;3924;48.830;9.262;2023-04-20T03:16:38;98398.81;;;3.97;73.81
7760;BME280;3924;48.830;9.262;2023-04-20T03:19:05;98397.97;;;3.91;73.97
7760;BME280;3924;48.830;9.262;2023-04-20T03:21:31;98396.53;;;3.83;74.06
7760;BME280;3924;48.830;9.262;2023-04-20T03:23:59;98399.47;;;3.82;73.92
7760;BME280;3924;48.830;9.262;2023-04-20T03:26:25;98394.63;;;3.79;74.15
7760;BME280;3924;48.830;9.262;2023-04-20T03:28:52;98397.25;;;3.74;74.05
7760;BME280;3924;48.830;9.262;2023-04-20T03:31:19;98395.63;;;3.73;74.17
7760;BME280;3924;48.830;9.262;2023-04-20T03:33:45;98393.00;;;3.78;74.37
7760;BME280;3924;48.830;9.262;2023-04-20T03:36:12;98387.13;;;3.81;74.27
7760;BME280;3924;48.830;9.262;2023-04-20T03:38:39;98393.63;;;3.85;74.37
7760;BME280;3924;48.830;9.262;2023-04-20T03:41:06;98395.72;;;3.83;74.50
7760;BME280;3924;48.830;9.262;2023-04-20T03:43:33;98394.63;;;3.79;74.63
7760;BME280;3924;48.830;9.262;2023-04-20T03:46:00;98394.56;;;3.74;74.51
7760;BME280;3924;48.830;9.262;2023-04-20T03:48:27;98389.16;;;3.69;74.66
7760;BME280;3924;48.830;9.262;2023-04-20T03:50:53;98392.81;;;3.63;74.63
7760;BME280;3924;48.830;9.262;2023-04-20T03:53:20;98394.34;;;3.53;74.80
7760;BME280;3924;48.830;9.262;2023-04-20T03:55:46;98393.47;;;3.48;74.92
7760;BME280;3924;48.830;9.262;2023-04-20T03:58:13;98383.53;;;3.43;75.29
7760;BME280;3924;48.830;9.262;2023-04-20T04:00:39;98381.69;;;3.49;75.22
7760;BME280;3924;48.830;9.262;2023-04-20T04:03:05;98379.31;;;3.52;75.30
7760;BME280;3924;48.830;9.262;2023-04-20T04:05:32;98372.38;;;3.56;75.16
7760;BME280;3924;48.830;9.262;2023-04-20T04:07:59;98381.50;;;3.55;75.21
7760;BME280;3924;48.830;9.262;2023-04-20T04:10:26;98379.31;;;3.52;75.31
7760;BME280;3924;48.830;9.262;2023-04-20T04:12:52;98383.94;;;3.57;75.51
7760;BME280;3924;48.830;9.262;2023-04-20T04:15:19;98381.47;;;3.50;75.18
7760;BME280;3924;48.830;9.262;2023-04-20T04:17:46;98384.44;;;3.32;75.21
7760;BME280;3924;48.830;9.262;2023-04-20T04:20:12;98387.13;;;3.32;75.46
7760;BME280;3924;48.830;9.262;2023-04-20T04:22:40;98392.50;;;3.32;75.48
7760;BME280;3924;48.830;9.262;2023-04-20T04:25:07;98378.59;;;3.35;75.52
7760;BME280;3924;48.830;9.262;2023-04-20T04:27:33;98387.19;;;3.37;75.63
7760;BME280;3924;48.830;9.262;2023-04-20T04:30:00;98381.31;;;3.40;75.63
7760;BME280;3924;48.830;9.262;2023-04-20T04:32:29;98378.59;;;3.35;75.56
7760;BME280;3924;48.830;9.262;2023-04-20T04:34:55;98383.13;;;3.35;75.79
7760;BME280;3924;48.830;9.262;2023-04-20T04:37:22;98376.47;;;3.37;75.92
7760;BME280;3924;48.830;9.262;2023-04-20T04:39:49;98380.84;;;3.43;75.97
7760;BME280;3924;48.830;9.262;2023-04-20T04:42:16;98376.09;;;3.50;75.75
7760;BME280;3924;48.830;9.262;2023-04-20T04:44:42;98369.69;;;3.51;75.48
7760;BME280;3924;48.830;9.262;2023-04-20T04:47:10;98369.63;;;3.46;75.55
7760;BME280;3924;48.830;9.262;2023-04-20T04:49:37;98374.97;;;3.46;75.76
7760;BME280;3924;48.830;9.262;2023-04-20T04:52:08;98377.72;;;3.51;75.75
7760;BME280;3924;48.830;9.262;2023-04-20T04:54:34;98369.72;;;3.56;75.86
7760;BME280;3924;48.830;9.262;2023-04-20T04:57:01;98375.59;;;3.53;75.73
7760;BME280;3924;48.830;9.262;2023-04-20T04:59:28;98378.81;;;3.55;75.86
7760;BME280;3924;48.830;9.262;2023-04-20T05:01:54;98379.41;;;3.58;76.08
7760;BME280;3924;48.830;9.262;2023-04-20T05:04:21;98377.53;;;3.58;75.94
7760;BME280;3924;48.830;9.262;2023-04-20T05:06:47;98382.38;;;3.61;75.79
7760;BME280;3924;48.830;9.262;2023-04-20T05:09:14;98379.75;;;3.66;76.00
7760;BME280;3924;48.830;9.262;2023-04-20T05:11:41;98382.28;;;3.78;75.75
7760;BME280;3924;48.830;9.262;2023-04-20T05:14:08;98382.38;;;3.88;75.83
7760;BME280;3924;48.830;9.262;2023-04-20T05:16:34;98380.03;;;3.97;75.63
7760;BME280;3924;48.830;9.262;2023-04-20T05:19:01;98383.59;;;4.02;75.47
7760;BME280;3924;48.830;9.262;2023-04-20T05:21:28;98379.34;;;4.06;75.38
7760;BME280;3924;48.830;9.262;2023-04-20T05:23:54;98381.00;;;4.13;75.28
7760;BME280;3924;48.830;9.262;2023-04-20T05:26:20;98387.72;;;4.15;74.92
7760;BME280;3924;48.830;9.262;2023-04-20T05:28:47;98381.09;;;4.23;75.25
7760;BME280;3924;48.830;9.262;2023-04-20T05:31:13;98382.47;;;4.30;74.82
7760;BME280;3924;48.830;9.262;2023-04-20T05:33:41;98389.03;;;4.39;75.14
7760;BME280;3924;48.830;9.262;2023-04-20T05:36:08;98385.06;;;4.47;74.81
7760;BME280;3924;48.830;9.262;2023-04-20T05:38:35;98391.50;;;4.51;74.67
7760;BME280;3924;48.830;9.262;2023-04-20T05:41:01;98384.03;;;4.53;74.90
7760;BME280;3924;48.830;9.262;2023-04-20T05:43:28;98390.91;;;4.44;74.66
7760;BME280;3924;48.830;9.262;2023-04-20T05:45:54;98382.81;;;4.39;75.11
7760;BME280;3924;48.830;9.262;2023-04-20T05:48:21;98382.81;;;4.39;75.00
7760;BME280;3924;48.830;9.262;2023-04-20T05:50:47;98387.59;;;4.32;74.98
7760;BME280;3924;48.830;9.262;2023-04-20T05:53:13;98385.38;;;4.24;74.93
7760;BME280;3924;48.830;9.262;2023-04-20T05:55:40;98380.44;;;4.10;75.00
7760;BME280;3924;48.830;9.262;2023-04-20T05:58:06;98395.47;;;4.11;74.98
7760;BME280;3924;48.830;9.262;2023-04-20T06:00:33;98387.34;;;4.01;75.25
7760;BME280;3924;48.830;9.262;2023-04-20T06:02:59;98383.50;;;3.92;74.87
7760;BME280;3924;48.830;9.262;2023-04-20T06:05:26;98384.00;;;3.89;75.18
7760;BME280;3924;48.830;9.262;2023-04-20T06:07:54;98376.41;;;4.08;74.86
7760;BME280;3924;48.830;9.262;2023-04-20T06:10:21;98380.66;;;4.36;74.60
7760;BME280;3924;48.830;9.262;2023-04-20T06:12:48;98384.38;;;4.67;74.26
7760;BME280;3924;48.830;9.262;2023-04-20T06:15:14;98393.69;;;4.97;73.83
7760;BME280;3924;48.830;9.262;2023-04-20T06:17:41;98380.34;;;5.12;73.29
7760;BME280;3924;48.830;9.262;2023-04-20T06:20:09;98376.34;;;5.19;73.18
7760;BME280;3924;48.830;9.262;2023-04-20T06:22:36;98373.94;;;5.28;73.13
7760;BME280;3924;48.830;9.262;2023-04-20T06:25:02;98376.47;;;5.50;73.15
7760;BME280;3924;48.830;9.262;2023-04-20T06:27:29;98371.16;;;5.81;72.60
7760;BME280;3924;48.830;9.262;2023-04-20T06:29:56;98370.16;;;6.02;72.59
7760;BME280;3924;48.830;9.262;2023-04-20T06:32:22;98362.63;;;6.29;71.82
7760;BME280;3924;48.830;9.262;2023-04-20T06:34:49;98357.78;;;6.42;71.66
7760;BME280;3924;48.830;9.262;2023-04-20T06:37:16;98363.69;;;6.64;71.51
7760;BME280;3924;48.830;9.262;2023-04-20T06:39:43;98364.78;;;6.73;71.35
7760;BME280;3924;48.830;9.262;2023-04-20T06:42:10;98368.00;;;6.80;70.88
7760;BME280;3924;48.830;9.262;2023-04-20T06:44:36;98357.22;;;6.75;71.12
7760;BME280;3924;48.830;9.262;2023-04-20T06:47:03;98364.22;;;6.76;70.88
7760;BME280;3924;48.830;9.262;2023-04-20T06:49:29;98360.66;;;6.96;70.91
7760;BME280;3924;48.830;9.262;2023-04-20T06:51:56;98347.94;;;7.17;70.48
7760;BME280;3924;48.830;9.262;2023-04-20T06:54:22;98366.31;;;7.05;70.30
7760;BME280;3924;48.830;9.262;2023-04-20T06:56:48;98361.28;;;6.68;70.92
7760;BME280;3924;48.830;9.262;2023-04-20T06:59:15;98363.13;;;6.88;71.17
7760;BME280;3924;48.830;9.262;2023-04-20T07:01:44;98352.81;;;7.15;69.95
7760;BME280;3924;48.830;9.262;2023-04-20T07:04:11;98356.50;;;7.34;69.88
7760;BME280;3924;48.830;9.262;2023-04-20T07:06:38;98358.31;;;7.49;69.79
7760;BME280;3924;48.830;9.262;2023-04-20T07:09:04;98352.59;;;7.61;69.29
7760;BME280;3924;48.830;9.262;2023-04-20T07:11:31;98350.44;;;7.58;69.23
7760;BME280;3924;48.830;9.262;2023-04-20T07:13:57;98346.69;;;7.54;69.39
7760;BME280;3924;48.830;9.262;2023-04-20T07:16:24;98343.66;;;7.71;69.06
7760;BME280;3924;48.830;9.262;2023-04-20T07:18:50;98346.38;;;7.60;68.81
7760;BME280;3924;48.830;9.262;2023-04-20T07:21:17;98348.88;;;7.52;69.23
7760;BME280;3924;48.830;9.262;2023-04-20T07:23:43;98351.56;;;7.47;69.05
7760;BME280;3924;48.830;9.262;2023-04-20T07:26:10;98346.78;;;7.33;69.29
7760;BME280;3924;48.830;9.262;2023-04-20T07:28:37;98342.44;;;7.43;69.46
7760;BME280;3924;48.830;9.262;2023-04-20T07:31:03;98348.06;;;7.51;69.02
7760;BME280;3924;48.830;9.262;2023-04-20T07:33:30;98342.38;;;7.53;68.85
7760;BME280;3924;48.830;9.262;2023-04-20T07:35:57;98343.75;;;7.50;69.07
7760;BME280;3924;48.830;9.262;2023-04-20T07:38:23;98339.06;;;7.71;68.92
7760;BME280;3924;48.830;9.262;2023-04-20T07:40:50;98342.59;;;7.61;68.77
7760;BME280;3924;48.830;9.262;2023-04-20T07:43:16;98345.66;;;7.50;68.92
7760;BME280;3924;48.830;9.262;2023-04-20T07:45:43;98343.50;;;7.47;69.12
7760;BME280;3924;48.830;9.262;2023-04-20T07:48:10;98333.63;;;7.76;68.79
7760;BME280;3924;48.830;9.262;2023-04-20T07:50:37;98338.31;;;8.00;68.20
7760;BME280;3924;48.830;9.262;2023-04-20T07:53:04;98342.16;;;8.28;67.83
7760;BME280;3924;48.830;9.262;2023-04-20T07:55:30;98336.31;;;8.49;67.53
7760;BME280;3924;48.830;9.262;2023-04-20T07:57:57;98337.00;;;8.31;67.51
7760;BME280;3924;48.830;9.262;2023-04-20T08:00:24;98335.69;;;8.58;67.48
7760;BME280;3924;48.830;9.262;2023-04-20T08:02:50;98339.66;;;8.94;66.78
7760;BME280;3924;48.830;9.262;2023-04-20T08:05:17;98341.63;;;9.13;66.25
7760;BME280;3924;48.830;9.262;2023-04-20T08:07:44;98334.94;;;9.29;66.15
7760;BME280;3924;48.830;9.262;2023-04-20T08:10:11;98340.41;;;9.24;65.98
7760;BME280;3924;48.830;9.262;2023-04-20T08:12:38;98343.25;;;9.14;66.29
7760;BME280;3924;48.830;9.262;2023-04-20T08:15:25;98333.63;;;8.79;66.60
7760;BME280;3924;48.830;9.262;2023-04-20T08:18:32;98333.72;;;8.39;67.19
7760;BME280;3924;48.830;9.262;2023-04-20T08:21:42;98334.88;;;8.23;67.51
7760;BME280;3924;48.830;9.262;2023-04-20T08:25:16;98329.63;;;8.08;67.84
7760;BME280;3924;48.830;9.262;2023-04-20T08:28:06;98325.94;;;7.93;67.97
7760;BME280;3924;48.830;9.262;2023-04-20T08:31:13;98330.94;;;7.76;68.36
7760;BME280;3924;48.830;9.262;2023-04-20T08:34:02;98333.97;;;7.64;68.31
7760;BME280;3924;48.830;9.262;2023-04-20T08:41:04;98326.81;;;7.39;68.77
7760;BME280;3924;48.830;9.262;2023-04-20T08:44:21;98335.16;;;7.43;68.75
7760;BME280;3924;48.830;9.262;2023-04-20T08:47:16;98332.75;;;7.42;68.97
7760;BME280;3924;48.830;9.262;2023-04-20T08:50:06;98321.97;;;7.36;68.78
7760;BME280;3924;48.830;9.262;2023-04-20T08:53:04;98331.69;;;7.32;69.00
7760;BME280;3924;48.830;9.262;2023-04-20T08:59:23;98327.91;;;7.33;69.14
7760;BME280;3924;48.830;9.262;2023-04-20T09:01:50;98326.28;;;7.37;69.13
7760;BME280;3924;48.830;9.262;2023-04-20T09:04:20;98328.69;;;7.44;69.18
7760;BME280;3924;48.830;9.262;2023-04-20T09:06:58;98333.78;;;7.46;69.06
7760;BME280;3924;48.830;9.262;2023-04-20T09:09:26;98335.16;;;7.48;68.99
7760;BME280;3924;48.830;9.262;2023-04-20T09:12:05;98333.81;;;7.40;69.17
7760;BME280;3924;48.830;9.262;2023-04-20T09:14:43;98325.75;;;7.35;69.10
7760;BME280;3924;48.830;9.262;2023-04-20T09:17:09;98325.75;;;7.35;69.22
7760;BME280;3924;48.830;9.262;2023-04-20T09:19:42;98329.53;;;7.34;69.33
7760;BME280;3924;48.830;9.262;2023-04-20T09:22:08;98317.66;;;7.35;69.34
7760;BME280;3924;48.830;9.262;2023-04-20T09:24:37;98319.28;;;7.31;69.47
7760;BME280;3924;48.830;9.262;2023-04-20T09:27:17;98319.00;;;7.38;69.21
7760;BME280;3924;48.830;9.262;2023-04-20T09:30:00;98314.13;;;7.40;69.20
7760;BME280;3924;48.830;9.262;2023-04-20T09:32:29;98315.41;;;7.53;69.30
7760;BME280;3924;48.830;9.262;2023-04-20T09:34:55;98313.75;;;7.62;68.95
7760;BME280;3924;48.830;9.262;2023-04-20T09:37:22;98315.84;;;7.70;68.96
7760;BME280;3924;48.830;9.262;2023-04-20T09:39:49;98308.78;;;7.79;68.63
7760;BME280;3924;48.830;9.262;2023-04-20T09:42:16;98308.75;;;7.84;68.67
7760;BME280;3924;48.830;9.262;2023-04-20T09:44:43;98298.44;;;7.91;68.63
7760;BME280;3924;48.830;9.262;2023-04-20T09:47:17;98305.97;;;7.94;68.38
7760;BME280;3924;48.830;9.262;2023-04-20T09:49:46;98294.13;;;7.90;68.62
7760;BME280;3924;48.830;9.262;2023-04-20T09:52:16;98298.47;;;7.86;68.74
7760;BME280;3924;48.830;9.262;2023-04-20T09:54:45;98303.31;;;7.89;68.57
7760;BME280;3924;48.830;9.262;2023-04-20T09:57:12;98306.56;;;7.86;68.70
7760;BME280;3924;48.830;9.262;2023-04-20T09:59:42;98303.63;;;7.83;68.55
7760;BME280;3924;48.830;9.262;2023-04-20T10:02:10;98310.06;;;7.87;68.87
7760;BME280;3924;48.830;9.262;2023-04-20T10:04:51;98308.16;;;7.87;68.76
7760;BME280;3924;48.830;9.262;2023-04-20T10:07:25;98303.31;;;7.89;68.71
7760;BME280;3924;48.830;9.262;2023-04-20T10:10:11;98297.34;;;7.92;68.84
7760;BME280;3924;48.830;9.262;2023-04-20T10:15:14;98295.09;;;8.05;68.58
7760;BME280;3924;48.830;9.262;2023-04-20T10:17:40;98289.09;;;8.13;68.53
7760;BME280;3924;48.830;9.262;2023-04-20T10:20:24;98287.97;;;8.19;68.40
7760;BME280;3924;48.830;9.262;2023-04-20T10:22:52;98291.22;;;8.16;68.35
7760;BME280;3924;48.830;9.262;2023-04-20T10:25:22;98285.06;;;8.10;68.58
7760;BME280;3924;48.830;9.262;2023-04-20T10:27:56;98286.97;;;8.10;68.71
7760;BME280;3924;48.830;9.262;2023-04-20T10:30:27;98277.50;;;8.12;68.64
7760;BME280;3924;48.830;9.262;2023-04-20T10:33:11;98286.97;;;8.10;68.48
7760;BME280;3924;48.830;9.262;2023-04-20T10:35:46;98291.03;;;8.07;68.69
7760;BME280;3924;48.830;9.262;2023-04-20T10:38:13;98287.47;;;8.12;68.76
7760;BME280;3924;48.830;9.262;2023-04-20T10:40:40;98282.84;;;8.17;68.69
7760;BME280;3924;48.830;9.262;2023-04-20T10:43:19;98272.75;;;8.28;68.55
7760;BME280;3924;48.830;9.262;2023-04-20T10:45:49;98271.13;;;8.27;68.65
7760;BME280;3924;48.830;9.262;2023-04-20T10:48:16;98273.31;;;8.25;68.92
7760;BME280;3924;48.830;9.262;2023-04-20T10:50:43;98267.94;;;8.25;68.99
7760;BME280;3924;48.830;9.262;2023-04-20T10:53:20;98260.38;;;8.22;69.14
7760;BME280;3924;48.830;9.262;2023-04-20T10:55:57;98257.19;;;8.15;69.56
7760;BME280;3924;48.830;9.262;2023-04-20T10:58:24;98250.78;;;8.11;69.90
7760;BME280;3924;48.830;9.262;2023-04-20T11:01:01;98249.22;;;8.05;69.98
7760;BME280;3924;48.830;9.262;2023-04-20T11:03:29;98243.94;;;7.89;70.51
7760;BME280;3924;48.830;9.262;2023-04-20T11:05:57;98230.47;;;7.84;70.59
7760;BME280;3924;48.830;9.262;2023-04-20T11:08:41;98218.31;;;7.87;70.82
7760;BME280;3924;48.830;9.262;2023-04-20T11:11:21;98216.97;;;7.89;70.84
7760;BME280;3924;48.830;9.262;2023-04-20T11:13:50;98218.56;;;7.90;70.91
7760;BME280;3924;48.830;9.262;2023-04-20T11:16:17;98211.22;;;7.96;70.96
7760;BME280;3924;48.830;9.262;2023-04-20T11:18:49;98215.44;;;8.07;71.06
7760;BME280;3924;48.830;9.262;2023-04-20T11:21:17;98206.72;;;8.15;70.98
7760;BME280;3924;48.830;9.262;2023-04-20T11:23:43;98211.72;;;8.27;70.80
7760;BME280;3924;48.830;9.262;2023-04-20T11:26:10;98194.06;;;8.40;70.66
7760;BME280;3924;48.830;9.262;2023-04-20T11:28:37;98192.00;;;8.56;70.65
7760;BME280;3924;48.830;9.262;2023-04-20T11:31:04;98185.69;;;8.65;70.66
7760;BME280;3924;48.830;9.262;2023-04-20T11:33:31;98191.69;;;8.81;70.52
7760;BME280;3924;48.830;9.262;2023-04-20T11:35:59;98193.44;;;8.91;70.45
7760;BME280;3924;48.830;9.262;2023-04-20T11:38:31;98196.69;;;9.12;70.30
7760;BME280;3924;48.830;9.262;2023-04-20T11:40:58;98193.69;;;9.32;69.87
7760;BME280;3924;48.830;9.262;2023-04-20T11:43:30;98192.50;;;9.38;69.92
7760;BME280;3924;48.830;9.262;2023-04-20T11:45:58;98201.09;;;9.26;70.30
7760;BME280;3924;48.830;9.262;2023-04-20T11:48:25;98192.91;;;9.13;70.60
7760;BME280;3924;48.830;9.262;2023-04-20T11:50:52;98201.44;;;9.01;70.99
7760;BME280;3924;48.830;9.262;2023-04-20T11:53:19;98196.03;;;9.01;70.97
7760;BME280;3924;48.830;9.262;2023-04-20T11:55:46;98196.53;;;9.03;71.09
7760;BME280;3924;48.830;9.262;2023-04-20T11:58:13;98203.91;;;8.97;71.25
7760;BME280;3924;48.830;9.262;2023-04-20T12:00:39;98214.28;;;8.90;71.42
7760;BME280;3924;48.830;9.262;2023-04-20T12:03:06;98219.22;;;8.83;71.61
7760;BME280;3924;48.830;9.262;2023-04-20T12:05:32;98221.13;;;8.83;71.70
7760;BME280;3924;48.830;9.262;2023-04-20T12:07:59;98217.13;;;8.80;71.68
7760;BME280;3924;48.830;9.262;2023-04-20T12:10:25;98215.78;;;8.77;71.88
7760;BME280;3924;48.830;9.262;2023-04-20T12:12:52;98221.97;;;8.78;72.09
7760;BME280;3924;48.830;9.262;2023-04-20T12:15:19;98211.25;;;8.73;71.90
7760;BME280;3924;48.830;9.262;2023-04-20T12:17:45;98215.66;;;8.64;71.94
7760;BME280;3924;48.830;9.262;2023-04-20T12:20:12;98214.66;;;8.60;72.30
7760;BME280;3924;48.830;9.262;2023-04-20T12:22:38;98212.25;;;8.58;72.39
7760;BME280;3924;48.830;9.262;2023-04-20T12:25:06;98215.75;;;8.59;72.21
7760;BME280;3924;48.830;9.262;2023-04-20T12:27:32;98201.66;;;8.62;72.33
7760;BME280;3924;48.830;9.262;2023-04-20T12:29:59;98203.84;;;8.60;72.10
7760;BME280;3924;48.830;9.262;2023-04-20T12:32:26;98196.88;;;8.54;72.32
7760;BME280;3924;48.830;9.262;2023-04-20T12:34:52;98197.19;;;8.52;72.29
7760;BME280;3924;48.830;9.262;2023-04-20T12:37:19;98192.03;;;8.50;72.30
7760;BME280;3924;48.830;9.262;2023-04-20T12:39:46;98198.53;;;8.49;72.36
7760;BME280;3924;48.830;9.262;2023-04-20T12:42:12;98198.03;;;8.47;72.56
7760;BME280;3924;48.830;9.262;2023-04-20T12:44:39;98203.69;;;8.51;72.52
7760;BME280;3924;48.830;9.262;2023-04-20T12:47:05;98199.00;;;8.57;72.28
7760;BME280;3924;48.830;9.262;2023-04-20T12:49:32;98194.41;;;8.57;72.17
7760;BME280;3924;48.830;9.262;2023-04-20T12:51:59;98193.84;;;8.60;72.29
7760;BME280;3924;48.830;9.262;2023-04-20T12:54:25;98194.00;;;8.69;72.33
7760;BME280;3924;48.830;9.262;2023-04-20T12:56:52;98188.53;;;8.74;72.23
7760;BME280;3924;48.830;9.262;2023-04-20T12:59:18;98186.28;;;8.81;72.02
7760;BME280;3924;48.830;9.262;2023-04-20T13:01:45;98185.25;;;8.77;72.00
7760;BME280;3924;48.830;9.262;2023-04-20T13:04:11;98177.50;;;8.70;72.27
7760;BME280;3924;48.830;9.262;2023-04-20T13:06:42;98186.41;;;8.71;72.34
7760;BME280;3924;48.830;9.262;2023-04-20T13:09:08;98168.06;;;8.68;72.40
7760;BME280;3924;48.830;9.262;2023-04-20T13:11:35;98175.09;;;8.69;72.45
7760;BME280;3924;48.830;9.262;2023-04-20T13:14:01;98178.38;;;8.66;72.33
7760;BME280;3924;48.830;9.262;2023-04-20T13:16:28;98183.25;;;8.64;72.42
7760;BME280;3924;48.830;9.262;2023-04-20T13:18:54;98185.72;;;8.60;72.55
7760;BME280;3924;48.830;9.262;2023-04-20T13:21:21;98185.22;;;8.58;72.71
7760;BME280;3924;48.830;9.262;2023-04-20T13:23:47;98185.78;;;8.55;72.52
7760;BME280;3924;48.830;9.262;2023-04-20T13:26:14;98175.22;;;8.59;72.75
7760;BME280;3924;48.830;9.262;2023-04-20T13:28:40;98168.47;;;8.56;72.64
7760;BME280;3924;48.830;9.262;2023-04-20T13:31:07;98178.44;;;8.61;72.51
7760;BME280;3924;48.830;9.262;2023-04-20T13:33:34;98185.88;;;8.69;72.46
7760;BME280;3924;48.830;9.262;2023-04-20T13:36:00;98181.53;;;8.73;72.48
7760;BME280;3924;48.830;9.262;2023-04-20T13:38:27;98182.69;;;8.67;72.51
7760;BME280;3924;48.830;9.262;2023-04-20T13:40:53;98181.09;;;8.66;72.50
7760;BME280;3924;48.830;9.262;2023-04-20T13:43:20;98172.09;;;8.70;72.43
7760;BME280;3924;48.830;9.262;2023-04-20T13:45:47;98165.53;;;8.76;72.36
7760;BME280;3924;48.830;9.262;2023-04-20T13:48:13;98167.88;;;8.83;72.20
7760;BME280;3924;48.830;9.262;2023-04-20T13:50:39;98175.41;;;8.86;72.04